createdAt,value
2019-04-19T00:00:22.714Z,5.81
2019-04-19T00:01:55.718Z,5.97
2019-04-19T00:03:35.845Z,6.02
2019-04-19T00:05:06.637Z,6.05
2019-04-19T00:06:36.339Z,6.09
2019-04-19T00:08:35.505Z,6.28
2019-04-19T00:10:59.709Z,6.12
2019-04-19T00:13:01.575Z,6.13
2019-04-19T00:14:18.833Z,6.05
2019-04-19T00:15:29.272Z,5.97
2019-04-19T00:16:43.335Z,5.84
2019-04-19T00:18:13.496Z,5.87
2019-04-19T00:20:49.634Z,5.64
2019-04-19T00:23:38.251Z,5.52
2019-04-19T00:24:59.258Z,5.44
2019-04-19T00:26:11.086Z,5.52
2019-04-19T00:27:41.309Z,5.37
2019-04-19T00:29:34.497Z,5.22
2019-04-19T00:31:47.616Z,5.26
2019-04-19T00:33:55.675Z,5.29
2019-04-19T00:35:10.176Z,5.29
2019-04-19T00:36:23.891Z,5.26
2019-04-19T00:37:36.524Z,5.23
2019-04-19T00:39:39.751Z,5.26
2019-04-19T00:42:43.687Z,5.13
2019-04-19T00:45:41.559Z,5
2019-04-19T00:48:45.725Z,4.83
2019-04-19T00:51:20.504Z,4.6
2019-04-19T00:53:43.365Z,4.5
2019-04-19T00:55:59.624Z,4.45
2019-04-19T00:57:58.613Z,4.36
2019-04-19T00:59:42.356Z,4.32
2019-04-19T01:01:23.119Z,4.24
2019-04-19T01:02:56.644Z,4.25
2019-04-19T01:04:28.595Z,4.18
2019-04-19T01:06:08.824Z,4.12
2019-04-19T01:07:40.895Z,4.07
2019-04-19T01:09:33.256Z,4.13
2019-04-19T01:12:06.797Z,4.36
2019-04-19T01:14:36.082Z,4.48
2019-04-19T01:17:11.029Z,4.6
2019-04-19T01:19:19.836Z,4.5
2019-04-19T01:20:33.760Z,4.53
2019-04-19T01:21:45.309Z,4.48
2019-04-19T01:23:15.346Z,4.5
2019-04-19T01:24:46.613Z,4.48
2019-04-19T01:26:14.947Z,4.56
2019-04-19T01:27:37.960Z,4.57
2019-04-19T01:29:12.018Z,4.48
2019-04-19T01:30:44.183Z,4.48
2019-04-19T01:32:15.419Z,4.31
2019-04-19T01:33:46.236Z,4.28
2019-04-19T01:35:18.743Z,4.07
2019-04-19T01:36:48.386Z,3.96
2019-04-19T01:38:12.211Z,3.94
2019-04-19T01:40:16.583Z,3.78
2019-04-19T01:43:15.649Z,3.68
2019-04-19T01:46:20.392Z,3.58
2019-04-19T01:49:17.801Z,3.52
2019-04-19T01:52:14.914Z,3.68
2019-04-19T01:55:14.772Z,3.82
2019-04-19T01:57:02.530Z,3.78
2019-04-19T01:58:27.274Z,3.77
2019-04-19T01:59:56.842Z,3.74
2019-04-19T02:01:28.389Z,3.82
2019-04-19T02:03:01.142Z,3.68
2019-04-19T02:04:32.913Z,3.71
2019-04-19T02:06:04.786Z,3.7
2019-04-19T02:07:37.717Z,3.58
2019-04-19T02:09:03.504Z,3.68
2019-04-19T02:10:58.470Z,3.61
2019-04-19T02:13:21.787Z,3.77
2019-04-19T02:15:17.055Z,3.76
2019-04-19T02:17:11.328Z,3.82
2019-04-19T02:18:35.501Z,3.82
2019-04-19T02:20:07.138Z,3.78
2019-04-19T02:21:39.305Z,3.82
2019-04-19T02:23:14.432Z,3.82
2019-04-19T02:24:51.934Z,3.81
2019-04-19T02:26:23.511Z,3.85
2019-04-19T02:27:51.228Z,3.74
2019-04-19T02:29:24.600Z,3.81
2019-04-19T02:31:53.471Z,3.91
2019-04-19T02:35:28.976Z,3.91
2019-04-19T02:43:51.016Z,3.78
2019-04-19T02:48:26.028Z,3.56
2019-04-19T02:56:23.358Z,3.46
2019-04-19T03:01:02.164Z,3.27
2019-04-19T03:07:42.558Z,3.68
2019-04-19T03:08:58.523Z,3.61
2019-04-19T03:10:24.461Z,3.7
2019-04-19T03:12:58.404Z,3.73
2019-04-19T03:15:48.845Z,3.61
2019-04-19T03:19:00.627Z,3.7
2019-04-19T03:21:50.175Z,3.5
2019-04-19T03:24:36.799Z,3.46
2019-04-19T03:27:12.363Z,3.3
2019-04-19T03:29:23.423Z,3.16
2019-04-19T03:32:53.007Z,3.09
2019-04-19T03:36:36.367Z,3.22
2019-04-19T03:39:36.382Z,3.19
2019-04-19T03:42:54.021Z,3.18
2019-04-19T03:46:12.372Z,3.15
2019-04-19T03:52:53.518Z,3.13
2019-04-19T03:56:26.169Z,3.31
2019-04-19T03:58:32.223Z,3.37
2019-04-19T03:59:44.141Z,3.37
2019-04-19T04:00:57.944Z,3.31
2019-04-19T04:02:10.248Z,3.33
2019-04-19T04:03:56.517Z,3.33
2019-04-19T04:05:43.960Z,3.31
2019-04-19T04:07:22.594Z,3.29
2019-04-19T04:09:03.587Z,3.31
2019-04-19T04:10:38.857Z,3.37
2019-04-19T04:12:37.787Z,3.31
2019-04-19T04:15:06.895Z,3.36
2019-04-19T04:17:00.026Z,3.36
2019-04-19T04:18:11.700Z,3.33
2019-04-19T04:19:25.154Z,3.33
2019-04-19T04:20:48.904Z,3.31
2019-04-19T04:22:22.545Z,3.3
2019-04-19T04:24:22.319Z,3.19
2019-04-19T04:26:19.374Z,3.18
2019-04-19T04:28:48.064Z,3.21
2019-04-19T04:30:55.883Z,3.36
2019-04-19T04:33:22.489Z,3.59
2019-04-19T04:35:48.167Z,3.67
2019-04-19T04:38:25.360Z,3.66
2019-04-19T04:39:49.982Z,3.68
2019-04-19T04:41:23.464Z,3.73
2019-04-19T04:43:23.709Z,3.71
2019-04-19T04:46:38.551Z,3.82
2019-04-19T04:49:59.046Z,3.91
2019-04-19T04:52:35.577Z,3.99
2019-04-19T04:53:55.664Z,3.94
2019-04-19T04:55:07.126Z,4.06
2019-04-19T04:56:19.625Z,4.07
2019-04-19T04:58:11.604Z,4.14
2019-04-19T04:59:51.840Z,4.12
2019-04-19T05:01:46.287Z,4.12
2019-04-19T05:04:23.718Z,4.06
2019-04-19T05:07:14.998Z,4.2
2019-04-19T05:10:24.586Z,4.24
2019-04-19T05:13:49.843Z,4.24
2019-04-19T05:17:26.043Z,4.22
2019-04-19T05:20:45.857Z,4.28
2019-04-19T05:23:45.238Z,4.31
2019-04-19T05:27:26.330Z,4.42
2019-04-19T05:29:56.235Z,4.45
2019-04-19T05:31:37.777Z,4.42
2019-04-19T05:33:43.851Z,4.48
2019-04-19T05:36:49.587Z,4.53
2019-04-19T05:39:59.343Z,4.49
2019-04-19T05:42:52.284Z,4.63
2019-04-19T05:46:27.958Z,4.6
2019-04-19T05:49:10.095Z,4.63
2019-04-19T05:52:22.474Z,4.75
2019-04-19T05:54:21.995Z,4.87
2019-04-19T05:55:34.649Z,4.94
2019-04-19T05:57:22.080Z,5.05
2019-04-19T05:59:47.221Z,5.02
2019-04-19T06:02:15.446Z,5.13
2019-04-19T06:04:41.324Z,5.28
2019-04-19T06:07:59.219Z,5.18
2019-04-19T06:09:34.632Z,5.18
2019-04-19T06:11:03.272Z,5.19
2019-04-19T06:12:38.879Z,5.28
2019-04-19T06:15:21.586Z,5.2
2019-04-19T06:18:16.226Z,5.12
2019-04-19T06:21:22.907Z,5.19
2019-04-19T06:24:16.570Z,5.34
2019-04-19T06:28:15.284Z,5.51
2019-04-19T06:31:30.909Z,5.46
2019-04-19T06:34:53.528Z,5.37
2019-04-19T06:36:54.827Z,5.34
2019-04-19T06:38:23.092Z,5.38
2019-04-19T06:39:35.693Z,5.43
2019-04-19T06:41:10.633Z,5.34
2019-04-19T06:43:04.642Z,5.37
2019-04-19T06:45:49.009Z,5.44
2019-04-19T06:48:03.517Z,5.34
2019-04-19T06:49:36.321Z,5.38
2019-04-19T06:51:04.071Z,5.38
2019-04-19T06:52:47.232Z,5.33
2019-04-19T06:54:13.621Z,5.34
2019-04-19T06:56:05.733Z,5.36
2019-04-19T06:58:07.293Z,5.34
2019-04-19T07:00:30.129Z,5.41
2019-04-19T07:02:19.938Z,5.41
2019-04-19T07:03:30.482Z,5.52
2019-04-19T07:05:27.477Z,5.55
2019-04-19T07:08:55.646Z,5.72
2019-04-19T07:12:39.878Z,5.87
2019-04-19T07:14:53.323Z,6.07
2019-04-19T07:18:17.412Z,6.31
2019-04-19T07:21:15.957Z,6.57
2019-04-19T07:24:39.091Z,6.83
2019-04-19T07:27:43.878Z,7.11
2019-04-19T07:29:19.125Z,7.08
2019-04-19T07:30:32.780Z,7.19
2019-04-19T07:31:53.867Z,7.23
2019-04-19T07:33:39.429Z,7.29
2019-04-19T07:36:49.426Z,7.58
2019-04-19T07:40:17.331Z,8.05
2019-04-19T07:43:23.447Z,8.32
2019-04-19T07:45:44.940Z,8.41
2019-04-19T07:48:19.682Z,8.54
2019-04-19T07:50:10.990Z,8.69
2019-04-19T07:52:08.983Z,8.82
2019-04-19T07:53:55.182Z,8.99
2019-04-19T07:55:24.285Z,9.02
2019-04-19T08:05:14.964Z,9.64
2019-04-19T08:18:38.479Z,10.61
2019-04-19T08:29:15.739Z,10.27
2019-04-19T08:31:12.693Z,9.88
2019-04-19T08:32:26.495Z,9.82
2019-04-19T08:33:42.828Z,9.8
2019-04-19T08:35:13.049Z,9.81
2019-04-19T08:36:52.140Z,9.87
2019-04-19T08:38:31.252Z,9.97
2019-04-19T08:41:00.688Z,10.17
2019-04-19T08:43:50.608Z,10.42
2019-04-19T08:45:43.002Z,10.45
2019-04-19T08:46:54.208Z,10.62
2019-04-19T08:48:33.282Z,10.62
2019-04-19T08:50:13.493Z,10.71
2019-04-19T08:51:40.004Z,10.72
2019-04-19T08:53:38.750Z,10.79
2019-04-19T08:56:29.055Z,10.86
2019-04-19T08:58:43.189Z,11.02
2019-04-19T09:02:09.321Z,11.18
2019-04-19T09:05:14.322Z,10.42
2019-04-19T09:08:45.804Z,9.95
2019-04-19T09:12:11.963Z,9.97
2019-04-19T09:15:12.413Z,10.13
2019-04-19T09:18:55.548Z,10.38
2019-04-19T09:22:10.520Z,10.59
2019-04-19T09:24:30.474Z,10.9
2019-04-19T09:26:57.396Z,11.02
2019-04-19T09:30:21.385Z,11.25
2019-04-19T09:32:39.027Z,11.43
2019-04-19T09:34:16.580Z,11.49
2019-04-19T09:36:01.781Z,11.33
2019-04-19T09:38:10.290Z,10.9
2019-04-19T09:40:27.293Z,10.43
2019-04-19T09:42:36.562Z,10.18
2019-04-19T09:44:48.064Z,9.99
2019-04-19T09:46:08.873Z,9.97
2019-04-19T09:47:21.185Z,9.81
2019-04-19T09:49:25.325Z,9.85
2019-04-19T09:52:20.398Z,10.03
2019-04-19T09:55:55.120Z,10.33
2019-04-19T09:58:53.004Z,10.76
2019-04-19T10:00:36.734Z,11.05
2019-04-19T10:02:02.648Z,11.04
2019-04-19T10:03:52.600Z,11.25
2019-04-19T10:05:12.885Z,11.44
2019-04-19T10:06:26.690Z,11.52
2019-04-19T10:07:37.182Z,11.6
2019-04-19T10:08:49.637Z,11.48
2019-04-19T10:10:15.739Z,11.25
2019-04-19T10:11:28.033Z,11.04
2019-04-19T10:12:38.237Z,10.84
2019-04-19T10:13:50.275Z,10.76
2019-04-19T10:15:02.577Z,10.59
2019-04-19T10:16:16.550Z,10.71
2019-04-19T10:17:28.647Z,10.57
2019-04-19T10:19:06.277Z,10.64
2019-04-19T10:20:20.867Z,10.89
2019-04-19T10:21:41.989Z,11.01
2019-04-19T10:22:58.260Z,11.1
2019-04-19T10:24:24.242Z,11.34
2019-04-19T10:25:54.766Z,11.41
2019-04-19T10:27:17.631Z,11.63
2019-04-19T10:28:32.582Z,11.96
2019-04-19T10:29:51.144Z,11.97
2019-04-19T10:31:01.606Z,12.21
2019-04-19T10:32:14.739Z,12.26
2019-04-19T10:33:54.622Z,12.4
2019-04-19T10:35:13.385Z,12.58
2019-04-19T10:36:24.931Z,12.68
2019-04-19T10:37:37.698Z,12.76
2019-04-19T10:38:52.560Z,12.87
2019-04-19T10:40:08.341Z,12.99
2019-04-19T10:41:19.461Z,12.99
2019-04-19T10:42:33.406Z,13.01
2019-04-19T10:43:58.442Z,13.05
2019-04-19T10:45:26.331Z,13.26
2019-04-19T10:46:38.988Z,13.23
2019-04-19T10:47:51.917Z,13.43
2019-04-19T10:49:33.017Z,13.54
2019-04-19T10:51:08.785Z,13.58
2019-04-19T10:52:21.805Z,13.65
2019-04-19T10:53:32.753Z,13.8
2019-04-19T10:54:43.893Z,13.8
2019-04-19T10:55:56.489Z,13.75
2019-04-19T10:57:10.323Z,13.54
2019-04-19T10:58:25.350Z,13.42
2019-04-19T10:59:36.773Z,13.21
2019-04-19T11:00:47.774Z,13.08
2019-04-19T11:02:00.159Z,12.84
2019-04-19T11:03:12.711Z,12.93
2019-04-19T11:04:23.105Z,12.87
2019-04-19T11:05:34.982Z,12.93
2019-04-19T11:06:47.651Z,12.87
2019-04-19T11:07:59.339Z,12.93
2019-04-19T11:09:12.299Z,12.88
2019-04-19T11:10:22.777Z,12.9
2019-04-19T11:11:34.245Z,12.93
2019-04-19T11:12:46.870Z,12.95
2019-04-19T11:14:00.270Z,12.98
2019-04-19T11:15:13.126Z,13.01
2019-04-19T11:16:25.486Z,13.09
2019-04-19T11:17:37.927Z,13.23
2019-04-19T11:18:50.496Z,13.45
2019-04-19T11:20:46.981Z,13.8
2019-04-19T11:22:05.617Z,14.12
2019-04-19T11:23:19.698Z,14.31
2019-04-19T11:24:33.858Z,14.56
2019-04-19T11:25:49.998Z,15.02
2019-04-19T11:27:03.710Z,15.32
2019-04-19T11:28:15.687Z,15.66
2019-04-19T11:29:28.004Z,15.92
2019-04-19T11:30:41.086Z,16.26
2019-04-19T11:31:52.532Z,16.69
2019-04-19T11:33:05.091Z,16.86
2019-04-19T11:34:17.475Z,17.04
2019-04-19T11:35:29.542Z,17.28
2019-04-19T11:36:41.478Z,17.79
2019-04-19T11:37:55.021Z,18.33
2019-04-19T11:39:07.157Z,18.79
2019-04-19T11:40:19.386Z,19.26
2019-04-19T11:41:31.560Z,19.78
2019-04-19T11:42:43.450Z,20.17
2019-04-19T11:43:54.292Z,20.52
2019-04-19T11:45:15.641Z,20.73
2019-04-19T11:46:27.794Z,20.95
2019-04-19T11:47:38.058Z,21.1
2019-04-19T11:48:49.869Z,21.32
2019-04-19T11:50:01.888Z,21.6
2019-04-19T11:51:13.899Z,21.84
2019-04-19T11:52:26.067Z,22.22
2019-04-19T11:53:38.556Z,22.52
2019-04-19T11:54:53.051Z,22.36
2019-04-19T11:56:09.415Z,22.19
2019-04-19T11:57:21.131Z,22.25
2019-04-19T11:58:35.835Z,22.43
2019-04-19T11:59:57.754Z,23.08
2019-04-19T12:01:12.700Z,23.52
2019-04-19T12:02:30.606Z,24.03
2019-04-19T12:03:46.269Z,24.34
2019-04-19T12:04:57.927Z,24.71
2019-04-19T12:06:30.027Z,24.99
2019-04-19T12:07:42.227Z,25.12
2019-04-19T12:08:56.262Z,25.33
2019-04-19T12:10:08.572Z,25.52
2019-04-19T12:11:20.470Z,25.62
2019-04-19T12:12:33.281Z,25.67
2019-04-19T12:13:46.468Z,25.76
2019-04-19T12:14:58.215Z,25.99
2019-04-19T12:16:11.355Z,26.11
2019-04-19T12:17:23.311Z,26.31
2019-04-19T12:18:40.007Z,26.46
2019-04-19T12:20:07.739Z,26.49
2019-04-19T12:21:21.382Z,26.76
2019-04-19T12:22:33.396Z,27.04
2019-04-19T12:23:44.538Z,27.15
2019-04-19T12:24:59.771Z,27.25
2019-04-19T12:26:11.776Z,27.3
2019-04-19T12:27:23.747Z,27.48
2019-04-19T12:28:35.783Z,27.67
2019-04-19T12:29:57.287Z,27.86
2019-04-19T12:31:13.475Z,28.06
2019-04-19T12:32:25.701Z,28.13
2019-04-19T12:33:37.392Z,28.25
2019-04-19T12:34:48.644Z,28.46
2019-04-19T12:36:01.202Z,28.64
2019-04-19T12:37:14.995Z,28.74
2019-04-19T12:38:26.466Z,28.92
2019-04-19T12:39:40.757Z,29.03
2019-04-19T12:40:52.260Z,29.15
2019-04-19T12:42:05.812Z,29.24
2019-04-19T12:43:19.390Z,29.4
2019-04-19T12:44:33.183Z,29.64
2019-04-19T12:45:54.137Z,29.8
2019-04-19T12:47:07.319Z,29.96
2019-04-19T12:48:19.750Z,30.05
2019-04-19T12:49:31.607Z,30.21
2019-04-19T12:50:56.447Z,30.24
2019-04-19T12:52:08.111Z,30.2
2019-04-19T12:53:20.792Z,30.29
2019-04-19T12:54:32.269Z,30.38
2019-04-19T12:55:44.926Z,30.52
2019-04-19T12:56:58.001Z,30.51
2019-04-19T12:58:10.476Z,30.67
2019-04-19T12:59:27.625Z,30.61
2019-04-19T13:00:38.789Z,30.59
2019-04-19T13:01:53.552Z,30.54
2019-04-19T13:03:05.523Z,30.52
2019-04-19T13:04:15.563Z,30.56
2019-04-19T13:05:31.905Z,30.51
2019-04-19T13:06:43.855Z,30.43
2019-04-19T13:07:56.824Z,30.36
2019-04-19T13:09:08.910Z,30.32
2019-04-19T13:10:20.657Z,30.31
2019-04-19T13:11:32.793Z,30.58
2019-04-19T13:12:47.621Z,30.58
2019-04-19T13:14:00.095Z,30.78
2019-04-19T13:15:11.920Z,30.83
2019-04-19T13:16:24.655Z,30.89
2019-04-19T13:17:36.146Z,30.95
2019-04-19T13:18:48.462Z,31.08
2019-04-19T13:20:24.504Z,30.99
2019-04-19T13:21:45.077Z,31.05
2019-04-19T13:22:57.018Z,31.14
2019-04-19T13:24:08.656Z,31.2
2019-04-19T13:25:23.495Z,31.44
2019-04-19T13:26:35.896Z,31.51
2019-04-19T13:28:01.635Z,31.66
2019-04-19T13:29:14.014Z,31.79
2019-04-19T13:30:52.328Z,31.74
2019-04-19T13:32:09.028Z,31.93
2019-04-19T13:33:20.665Z,31.86
2019-04-19T13:34:33.481Z,31.85
2019-04-19T13:35:46.167Z,31.72
2019-04-19T13:36:57.800Z,31.66
2019-04-19T13:38:09.771Z,31.67
2019-04-19T13:39:21.722Z,31.78
2019-04-19T13:40:34.360Z,31.62
2019-04-19T13:41:47.172Z,31.66
2019-04-19T13:43:04.824Z,31.7
2019-04-19T13:44:17.123Z,31.92
2019-04-19T13:45:38.380Z,31.95
2019-04-19T13:46:53.420Z,32.12
2019-04-19T13:48:05.182Z,32.23
2019-04-19T13:49:17.103Z,32.42
2019-04-19T13:50:44.088Z,32.6
2019-04-19T13:51:58.640Z,32.6
2019-04-19T13:53:10.780Z,32.59
2019-04-19T13:54:21.348Z,32.59
2019-04-19T13:55:34.547Z,32.75
2019-04-19T13:56:47.261Z,32.88
2019-04-19T13:58:00.130Z,32.59
2019-04-19T13:59:10.398Z,31.87
2019-04-19T14:00:24.466Z,31.13
2019-04-19T14:01:38.519Z,30.62
2019-04-19T14:02:51.541Z,30.23
2019-04-19T14:04:03.584Z,29.74
2019-04-19T14:05:15.568Z,29.64
2019-04-19T14:06:26.833Z,29.39
2019-04-19T14:07:39.601Z,29.24
2019-04-19T14:08:53.656Z,29
2019-04-19T14:10:07.291Z,28.74
2019-04-19T14:11:21.314Z,28.74
2019-04-19T14:12:33.595Z,28.55
2019-04-19T14:13:55.843Z,28.49
2019-04-19T14:15:12.877Z,28.55
2019-04-19T14:16:24.048Z,28.72
2019-04-19T14:17:36.443Z,28.82
2019-04-19T14:18:49.138Z,29.15
2019-04-19T14:20:03.117Z,29.25
2019-04-19T14:21:14.802Z,29.44
2019-04-19T14:22:26.066Z,29.55
2019-04-19T14:23:39.525Z,29.62
2019-04-19T14:24:57.670Z,29.57
2019-04-19T14:26:10.295Z,29.57
2019-04-19T14:27:35.924Z,29.64
2019-04-19T14:28:49.536Z,29.59
2019-04-19T14:30:03.556Z,29.73
2019-04-19T14:31:16.407Z,29.71
2019-04-19T14:32:29.315Z,29.64
2019-04-19T14:33:41.494Z,29.68
2019-04-19T14:34:56.088Z,29.44
2019-04-19T14:36:08.432Z,29.16
2019-04-19T14:37:22.407Z,29.25
2019-04-19T14:38:35.600Z,29.15
2019-04-19T14:39:48.707Z,29.22
2019-04-19T14:41:01.653Z,29.12
2019-04-19T14:42:14.121Z,28.97
2019-04-19T14:43:25.294Z,28.94
2019-04-19T14:44:37.667Z,28.86
2019-04-19T14:45:50.662Z,28.72
2019-04-19T14:47:02.999Z,28.62
2019-04-19T14:48:28.268Z,28.46
2019-04-19T14:49:49.858Z,28.04
2019-04-19T14:51:24.420Z,27.82
2019-04-19T14:52:42.537Z,27.72
2019-04-19T14:53:55.819Z,27.71
2019-04-19T14:55:06.312Z,27.48
2019-04-19T14:56:19.892Z,27.67
2019-04-19T14:57:32.813Z,27.94
2019-04-19T14:58:43.111Z,28
2019-04-19T14:59:54.627Z,27.97
2019-04-19T15:01:06.761Z,28.09
2019-04-19T15:02:18.779Z,28.2
2019-04-19T15:03:30.818Z,28.18
2019-04-19T15:04:42.855Z,28.23
2019-04-19T15:05:55.489Z,28.37
2019-04-19T15:07:07.753Z,28.43
2019-04-19T15:08:17.474Z,28.23
2019-04-19T15:09:29.792Z,28.27
2019-04-19T15:10:42.194Z,28.28
2019-04-19T15:11:53.385Z,28.28
2019-04-19T15:13:04.842Z,28.19
2019-04-19T15:14:17.115Z,28.18
2019-04-19T15:15:29.489Z,28.04
2019-04-19T15:16:43.860Z,28.09
2019-04-19T15:17:57.704Z,28.04
2019-04-19T15:19:09.013Z,28.1
2019-04-19T15:20:21.962Z,28.12
2019-04-19T15:21:34.217Z,28.08
2019-04-19T15:22:47.342Z,28.03
2019-04-19T15:24:00.437Z,28.09
2019-04-19T15:25:12.768Z,28.1
2019-04-19T15:26:25.307Z,28.27
2019-04-19T15:27:38.979Z,28.31
2019-04-19T15:28:51.017Z,28.27
2019-04-19T15:30:03.057Z,28.18
2019-04-19T15:31:14.187Z,28.16
2019-04-19T15:32:26.440Z,28.19
2019-04-19T15:33:39.116Z,28.04
2019-04-19T15:34:51.637Z,27.91
2019-04-19T15:36:07.936Z,27.73
2019-04-19T15:37:19.942Z,27.5
2019-04-19T15:38:32.073Z,27.33
2019-04-19T15:39:44.445Z,27.23
2019-04-19T15:40:56.193Z,27.16
2019-04-19T15:42:08.479Z,27.01
2019-04-19T15:43:21.197Z,26.83
2019-04-19T15:44:31.389Z,26.56
2019-04-19T15:45:44.977Z,26.3
2019-04-19T15:46:57.569Z,26.18
2019-04-19T15:48:11.347Z,25.98
2019-04-19T15:49:46.058Z,25.71
2019-04-19T15:51:21.896Z,25.4
2019-04-19T15:52:48.047Z,25.18
2019-04-19T15:54:00.890Z,24.99
2019-04-19T15:55:12.501Z,24.71
2019-04-19T15:56:24.343Z,24.31
2019-04-19T15:57:36.694Z,24.01
2019-04-19T15:58:48.869Z,23.96
2019-04-19T16:00:00.901Z,23.7
2019-04-19T16:01:14.269Z,23.4
2019-04-19T16:02:26.120Z,23.13
2019-04-19T16:03:38.515Z,22.98
2019-04-19T16:04:50.514Z,22.81
2019-04-19T16:06:02.208Z,22.63
2019-04-19T16:07:12.805Z,22.55
2019-04-19T16:08:26.594Z,22.25
2019-04-19T16:09:38.142Z,22.01
2019-04-19T16:10:53.164Z,21.72
2019-04-19T16:12:05.864Z,21.58
2019-04-19T16:13:17.742Z,21.26
2019-04-19T16:14:30.017Z,21.15
2019-04-19T16:15:42.265Z,21.05
2019-04-19T16:16:55.292Z,20.9
2019-04-19T16:18:08.171Z,20.82
2019-04-19T16:19:20.244Z,20.64
2019-04-19T16:20:33.436Z,20.48
2019-04-19T16:22:00.460Z,20.33
2019-04-19T16:23:16.233Z,20.27
2019-04-19T16:24:27.617Z,19.94
2019-04-19T16:25:40.053Z,19.75
2019-04-19T16:26:55.007Z,19.72
2019-04-19T16:28:07.332Z,19.64
2019-04-19T16:29:48.896Z,19.48
2019-04-19T16:31:08.334Z,19.45
2019-04-19T16:32:19.569Z,19.23
2019-04-19T16:33:32.215Z,19.2
2019-04-19T16:34:43.645Z,19.11
2019-04-19T16:35:54.814Z,19.08
2019-04-19T16:37:08.648Z,19.07
2019-04-19T16:38:22.235Z,18.98
2019-04-19T16:39:36.088Z,18.91
2019-04-19T16:40:48.777Z,19
2019-04-19T16:42:01.068Z,18.98
2019-04-19T16:43:13.656Z,18.94
2019-04-19T16:44:26.007Z,19.08
2019-04-19T16:45:38.188Z,18.97
2019-04-19T16:46:50.903Z,18.96
2019-04-19T16:48:03.386Z,19.05
2019-04-19T16:49:18.712Z,19
2019-04-19T16:50:30.875Z,19.15
2019-04-19T16:51:59.253Z,19.11
2019-04-19T16:53:13.633Z,19.15
2019-04-19T16:54:25.941Z,19.24
2019-04-19T16:55:36.517Z,19.42
2019-04-19T16:56:48.278Z,19.41
2019-04-19T16:58:20.812Z,19.39
2019-04-19T16:59:34.180Z,19.37
2019-04-19T17:00:46.990Z,19.44
2019-04-19T17:01:58.921Z,19.45
2019-04-19T17:03:09.942Z,19.49
2019-04-19T17:04:23.055Z,19.66
2019-04-19T17:05:36.765Z,20.04
2019-04-19T17:06:48.735Z,20.29
2019-04-19T17:08:01.489Z,20.49
2019-04-19T17:09:15.037Z,20.75
2019-04-19T17:10:29.181Z,20.88
2019-04-19T17:11:41.703Z,21.23
2019-04-19T17:12:53.986Z,21.6
2019-04-19T17:14:07.621Z,21.83
2019-04-19T17:15:21.480Z,22.16
2019-04-19T17:16:38.704Z,22.23
2019-04-19T17:17:51.246Z,22.44
2019-04-19T17:19:03.104Z,22.44
2019-04-19T17:20:15.714Z,22.67
2019-04-19T17:21:28.319Z,22.89
2019-04-19T17:22:53.239Z,23.18
2019-04-19T17:24:07.007Z,23.45
2019-04-19T17:25:21.009Z,23.74
2019-04-19T17:26:31.565Z,23.94
2019-04-19T17:27:43.490Z,23.99
2019-04-19T17:28:56.648Z,24.13
2019-04-19T17:30:08.274Z,24.07
2019-04-19T17:31:22.307Z,24.18
2019-04-19T17:32:34.287Z,24.24
2019-04-19T17:33:46.148Z,24.06
2019-04-19T17:34:58.021Z,24
2019-04-19T17:36:09.919Z,24.03
2019-04-19T17:37:22.235Z,24.03
2019-04-19T17:38:51.962Z,23.86
2019-04-19T17:40:07.135Z,23.55
2019-04-19T17:41:21.046Z,23.26
2019-04-19T17:42:34.539Z,23.01
2019-04-19T17:43:47.696Z,22.63
2019-04-19T17:45:00.128Z,22.37
2019-04-19T17:46:12.941Z,22.06
2019-04-19T17:47:39.447Z,21.65
2019-04-19T17:48:53.141Z,21.25
2019-04-19T17:50:05.264Z,20.92
2019-04-19T17:51:17.765Z,20.75
2019-04-19T17:52:37.474Z,20.48
2019-04-19T17:53:54.499Z,20.26
2019-04-19T17:55:39.431Z,19.92
2019-04-19T17:57:02.910Z,19.66
2019-04-19T17:58:15.142Z,19.39
2019-04-19T17:59:27.999Z,19.15
2019-04-19T18:00:39.923Z,18.86
2019-04-19T18:01:51.320Z,18.52
2019-04-19T18:03:04.876Z,18.36
2019-04-19T18:04:19.899Z,18.06
2019-04-19T18:05:32.214Z,17.91
2019-04-19T18:06:56.179Z,17.63
2019-04-19T18:08:24.379Z,17.37
2019-04-19T18:10:03.673Z,17.2
2019-04-19T18:11:37.093Z,16.89
2019-04-19T18:12:49.419Z,16.69
2019-04-19T18:14:02.037Z,16.62
2019-04-19T18:15:14.558Z,16.49
2019-04-19T18:16:26.573Z,16.32
2019-04-19T18:17:39.624Z,16.18
2019-04-19T18:19:07.091Z,15.99
2019-04-19T18:20:32.751Z,15.66
2019-04-19T18:21:48.313Z,15.66
2019-04-19T18:23:35.207Z,15.47
2019-04-19T18:25:13.885Z,15.23
2019-04-19T18:26:38.499Z,15.05
2019-04-19T18:28:06.078Z,14.89
2019-04-19T18:29:32.289Z,14.77
2019-04-19T18:30:57.559Z,14.7
2019-04-19T18:32:16.254Z,14.45
2019-04-19T18:33:32.096Z,14.3
2019-04-19T18:34:52.016Z,14.12
2019-04-19T18:36:25.182Z,13.97
2019-04-19T18:37:53.801Z,13.85
2019-04-19T18:39:06.287Z,13.8
2019-04-19T18:40:19.376Z,13.65
2019-04-19T18:41:31.312Z,13.55
2019-04-19T18:43:24.376Z,13.36
2019-04-19T18:45:23.422Z,13.31
2019-04-19T18:46:44.753Z,13.28
2019-04-19T18:47:56.849Z,13.16
2019-04-19T18:49:09.579Z,13.12
2019-04-19T18:50:22.311Z,13.01
2019-04-19T18:51:49.786Z,12.99
2019-04-19T18:53:39.877Z,12.9
2019-04-19T18:55:47.262Z,12.75
2019-04-19T18:57:11.534Z,12.69
2019-04-19T18:58:35.828Z,12.51
2019-04-19T19:00:02.144Z,12.5
2019-04-19T19:01:37.498Z,12.4
2019-04-19T19:03:05.082Z,12.36
2019-04-19T19:04:30.082Z,12.4
2019-04-19T19:06:02.785Z,12.26
2019-04-19T19:07:31.141Z,12.25
2019-04-19T19:09:06.750Z,12.18
2019-04-19T19:10:52.218Z,12.15
2019-04-19T19:12:20.296Z,11.99
2019-04-19T19:13:41.074Z,11.99
2019-04-19T19:15:06.280Z,11.93
2019-04-19T19:16:32.500Z,11.88
2019-04-19T19:18:01.319Z,11.77
2019-04-19T19:19:31.785Z,11.77
2019-04-19T19:21:04.589Z,11.63
2019-04-19T19:22:52.002Z,11.6
2019-04-19T19:25:36.986Z,11.44
2019-04-19T19:27:33.716Z,11.19
2019-04-19T19:28:47.397Z,11.05
2019-04-19T19:29:58.771Z,10.98
2019-04-19T19:31:11.081Z,10.87
2019-04-19T19:32:24.949Z,10.84
2019-04-19T19:33:51.710Z,10.83
2019-04-19T19:35:21.785Z,10.87
2019-04-19T19:36:53.742Z,10.83
2019-04-19T19:40:35.357Z,10.77
2019-04-19T19:43:50.691Z,10.68
2019-04-19T19:46:30.656Z,10.69
2019-04-19T19:50:46.525Z,10.79
2019-04-19T19:54:37.087Z,10.75
2019-04-19T19:57:37.932Z,10.72
2019-04-19T19:59:43.497Z,10.68
2019-04-19T20:02:15.541Z,10.77
2019-04-19T20:04:08.671Z,10.58
2019-04-19T20:05:38.208Z,10.61
2019-04-19T20:07:14.300Z,10.55
2019-04-19T20:08:47.727Z,10.42
2019-04-19T20:10:17.992Z,10.36
2019-04-19T20:11:43.976Z,10.24
2019-04-19T20:13:12.674Z,10.28
2019-04-19T20:14:40.578Z,10.17
2019-04-19T20:16:02.802Z,10.06
2019-04-19T20:17:31.586Z,10.06
2019-04-19T20:19:04.062Z,9.92
2019-04-19T20:20:28.050Z,9.95
2019-04-19T20:22:05.931Z,10
2019-04-19T20:23:38.276Z,9.92
2019-04-19T20:26:12.653Z,10
2019-04-19T20:27:59.488Z,10.03
2019-04-19T20:29:30.105Z,9.99
2019-04-19T20:30:58.366Z,9.91
2019-04-19T20:32:26.346Z,10.06
2019-04-19T20:33:59.799Z,9.95
2019-04-19T20:35:26.410Z,9.9
2019-04-19T20:36:47.672Z,9.84
2019-04-19T20:38:12.131Z,9.81
2019-04-19T20:39:38.817Z,9.69
2019-04-19T20:41:08.855Z,9.63
2019-04-19T20:43:20.158Z,9.42
2019-04-19T20:45:38.764Z,9.21
2019-04-19T20:47:02.036Z,9.09
2019-04-19T20:48:29.837Z,8.95
2019-04-19T20:49:52.744Z,8.77
2019-04-19T20:52:00.426Z,8.75
2019-04-19T20:54:40.983Z,8.66
2019-04-19T20:57:45.957Z,8.49
2019-04-19T20:59:55.610Z,8.41
2019-04-19T21:01:12.872Z,8.42
2019-04-19T21:02:42.289Z,8.36
2019-04-19T21:04:01.572Z,8.45
2019-04-19T21:05:28.316Z,8.42
2019-04-19T21:06:58.256Z,8.59
2019-04-19T21:08:30.376Z,8.6
2019-04-19T21:09:57.886Z,8.68
2019-04-19T21:11:28.090Z,8.63
2019-04-19T21:13:08.646Z,8.54
2019-04-19T21:14:43.208Z,8.57
2019-04-19T21:15:58.042Z,8.5
2019-04-19T21:17:14.394Z,8.54
2019-04-19T21:18:33.913Z,8.36
2019-04-19T21:19:54.066Z,8.31
2019-04-19T21:21:18.115Z,8.23
2019-04-19T21:22:40.008Z,8.18
2019-04-19T21:24:09.067Z,8.32
2019-04-19T21:25:48.284Z,8.24
2019-04-19T21:27:29.434Z,8.18
2019-04-19T21:29:01.349Z,8.11
2019-04-19T21:30:17.128Z,8.03
2019-04-19T21:31:54.774Z,7.95
2019-04-19T21:33:20.564Z,7.88
2019-04-19T21:34:40.054Z,7.84
2019-04-19T21:36:11.559Z,7.64
2019-04-19T21:37:45.442Z,7.59
2019-04-19T21:39:14.898Z,7.41
2019-04-19T21:40:43.510Z,7.39
2019-04-19T21:42:09.403Z,7.22
2019-04-19T21:43:33.710Z,7.14
2019-04-19T21:45:06.712Z,7.1
2019-04-19T21:46:33.620Z,6.89
2019-04-19T21:47:59.646Z,6.82
2019-04-19T21:49:22.764Z,6.86
2019-04-19T21:50:51.940Z,6.62
2019-04-19T21:52:21.915Z,6.67
2019-04-19T21:53:51.307Z,6.56
2019-04-19T21:55:35.573Z,6.5